Time;durP1;ratioP1;P1;durP2;ratioP2;P2;SDS_P1;SDS_P2;PMS_P1;PMS_P2;Temp;Humidity;BMP_temperature;BMP_pressure;BME280_temperature;BME280_humidity;BME280_pressure;Samples;Min_cycle;Max_cycle;Signal;HPM_P1;HPM_P2
2024/03/27 00:01:47;;;;;;;2.47;1.80;;;12.70;99.90;;;;;;5051968;28;20029;-56
2024/03/27 00:04:13;;;;;;;5.50;2.25;;;12.70;99.90;;;;;;5052033;28;20036;-54
2024/03/27 00:06:38;;;;;;;8.98;2.53;;;12.70;99.90;;;;;;5052392;28;20378;-54
2024/03/27 00:09:04;;;;;;;5.28;2.80;;;12.70;99.90;;;;;;5052105;28;20033;-51
2024/03/27 00:11:30;;;;;;;5.10;2.38;;;12.70;99.90;;;;;;5052309;28;20025;-56
2024/03/27 00:13:56;;;;;;;3.53;2.60;;;12.60;99.90;;;;;;5052024;28;20025;-54
2024/03/27 00:16:21;;;;;;;4.57;2.15;;;12.60;99.90;;;;;;5051977;28;20045;-50
2024/03/27 00:18:47;;;;;;;7.82;3.13;;;12.50;99.90;;;;;;5051931;28;20473;-54
2024/03/27 00:21:13;;;;;;;7.80;2.10;;;12.50;99.90;;;;;;5051795;28;20031;-54
2024/03/27 00:23:39;;;;;;;5.28;2.10;;;12.40;99.90;;;;;;5052075;28;20021;-58
2024/03/27 00:26:05;;;;;;;8.85;2.40;;;12.40;99.90;;;;;;5051905;28;20060;-54
2024/03/27 00:28:30;;;;;;;13.20;2.70;;;12.50;99.90;;;;;;5051959;28;20420;-52
2024/03/27 00:30:56;;;;;;;5.13;2.83;;;12.50;99.90;;;;;;5052049;28;20021;-55
2024/03/27 00:33:23;;;;;;;5.18;2.53;;;12.50;99.90;;;;;;5050546;28;20473;-53
2024/03/27 00:35:58;;;;;;;15.80;3.17;;;12.40;99.90;;;;;;5051609;28;20033;-54
2024/03/27 00:38:25;;;;;;;7.80;2.60;;;12.30;99.90;;;;;;5051621;28;20033;-54
2024/03/27 00:40:51;;;;;;;7.00;2.97;;;12.30;99.90;;;;;;5051886;28;20036;-54
2024/03/27 00:43:17;;;;;;;6.90;2.28;;;12.30;99.90;;;;;;5052084;28;20538;-54
2024/03/27 00:45:43;;;;;;;9.38;2.28;;;12.30;99.90;;;;;;5051758;28;20033;-51
2024/03/27 00:48:09;;;;;;;6.95;2.33;;;12.20;99.90;;;;;;5051990;28;20373;-55
2024/03/27 00:50:35;;;;;;;4.53;2.22;;;12.20;99.90;;;;;;5051729;28;20021;-51
2024/03/27 00:53:02;;;;;;;2.95;1.70;;;12.10;99.90;;;;;;5051628;28;20025;-55
2024/03/27 00:55:28;;;;;;;22.63;3.58;;;12.20;99.90;;;;;;5051722;28;20108;-54
2024/03/27 00:57:55;;;;;;;8.93;2.03;;;12.20;99.90;;;;;;5052230;28;20352;-53
2024/03/27 01:00:21;;;;;;;6.20;2.22;;;12.20;99.90;;;;;;5033708;28;20032;-55
2024/03/27 01:02:48;;;;;;;4.30;1.88;;;12.20;99.90;;;;;;5051564;28;20036;-55
2024/03/27 01:05:15;;;;;;;4.22;2.20;;;12.20;99.90;;;;;;5051374;28;20493;-54
2024/03/27 01:07:41;;;;;;;5.30;1.67;;;12.20;99.90;;;;;;5051476;28;20021;-56
2024/03/27 01:10:11;;;;;;;3.65;1.73;;;12.20;99.90;;;;;;5051546;28;20505;-55
2024/03/27 01:12:41;;;;;;;11.35;2.63;;;12.20;99.90;;;;;;5050037;28;20529;-54
2024/03/27 01:15:07;;;;;;;7.75;2.00;;;12.30;99.90;;;;;;5054398;28;20021;-51
2024/03/27 01:17:33;;;;;;;7.05;1.90;;;12.30;99.90;;;;;;5054861;28;20374;-58
2024/03/27 01:20:00;;;;;;;2.97;2.00;;;12.30;99.90;;;;;;5054967;28;20029;-55
2024/03/27 01:22:25;;;;;;;7.00;2.08;;;12.30;99.90;;;;;;5054951;28;20025;-55
2024/03/27 01:24:51;;;;;;;6.40;2.30;;;12.30;99.90;;;;;;5055305;28;20036;-54
2024/03/27 01:27:18;;;;;;;4.28;2.15;;;12.20;99.90;;;;;;5054996;28;20036;-55
2024/03/27 01:29:44;;;;;;;4.72;2.38;;;12.20;99.90;;;;;;5053751;28;20485;-49
2024/03/27 01:32:10;;;;;;;4.00;2.47;;;12.20;99.90;;;;;;5054841;28;20021;-54
2024/03/27 01:34:35;;;;;;;6.55;3.00;;;12.10;99.90;;;;;;5055005;28;20100;-54
2024/03/27 01:37:01;;;;;;;7.32;2.50;;;12.20;99.90;;;;;;5054624;28;20071;-53
2024/03/27 01:39:26;;;;;;;6.60;2.47;;;12.20;99.90;;;;;;5054613;28;20029;-54
2024/03/27 01:41:52;;;;;;;8.98;1.80;;;12.20;99.90;;;;;;5054699;28;20029;-54
2024/03/27 01:44:19;;;;;;;7.40;2.13;;;12.20;99.90;;;;;;5054525;28;20485;-58
2024/03/27 01:46:47;;;;;;;5.75;2.40;;;12.20;99.90;;;;;;5054335;28;20108;-54
2024/03/27 01:49:17;;;;;;;;;;;12.20;99.90;;;;;;5053952;28;20029;-54
2024/03/27 01:51:42;;;;;;;7.97;2.03;;;12.20;99.90;;;;;;5054369;28;19944;-53
2024/03/27 01:54:11;;;;;;;5.63;2.25;;;12.10;99.90;;;;;;5054005;28;20056;-51
2024/03/27 01:56:37;;;;;;;4.10;2.38;;;12.00;99.90;;;;;;5049656;28;20028;-48
2024/03/27 01:59:04;;;;;;;10.50;2.55;;;12.00;99.90;;;;;;5053183;28;20029;-55
2024/03/27 02:01:32;;;;;;;3.90;1.67;;;12.00;99.90;;;;;;5054151;28;20171;-42
2024/03/27 02:03:59;;;;;;;16.05;2.90;;;12.00;99.90;;;;;;5053521;28;20032;-44
2024/03/27 02:06:25;;;;;;;6.55;3.25;;;12.00;99.90;;;;;;5054337;28;20017;-42
2024/03/27 02:08:51;;;;;;;5.60;2.63;;;11.90;99.90;;;;;;5053916;28;20401;-50
2024/03/27 02:11:17;;;;;;;6.75;2.65;;;11.80;99.90;;;;;;5054023;28;20094;-43
2024/03/27 02:13:45;;;;;;;10.38;2.75;;;11.80;99.90;;;;;;5053204;28;20017;-43
2024/03/27 02:16:10;;;;;;;4.97;2.40;;;11.80;99.90;;;;;;5053253;28;20040;-44
2024/03/27 02:18:36;;;;;;;6.10;2.30;;;11.80;99.90;;;;;;5052932;28;20036;-42
2024/03/27 02:21:03;;;;;;;8.43;2.83;;;11.80;99.90;;;;;;5052662;28;20021;-54
2024/03/27 02:23:34;;;;;;;5.20;2.90;;;11.70;99.90;;;;;;5053567;28;20500;-43
2024/03/27 02:26:08;;;;;;;8.77;3.08;;;11.70;99.90;;;;;;5052565;28;20499;-41
2024/03/27 02:28:33;;;;;;;8.52;2.67;;;11.70;99.90;;;;;;5053747;28;20017;-40
2024/03/27 02:30:59;;;;;;;15.70;3.90;;;11.70;99.90;;;;;;5053676;28;20496;-43
2024/03/27 02:33:25;;;;;;;3.38;2.50;;;11.60;99.90;;;;;;5053120;28;20435;-41
2024/03/27 02:35:50;;;;;;;10.68;2.28;;;11.60;99.90;;;;;;5053245;28;20033;-54
2024/03/27 02:38:16;;;;;;;6.35;2.38;;;11.60;99.90;;;;;;5053548;28;20087;-55
2024/03/27 02:40:42;;;;;;;8.48;3.00;;;11.60;99.90;;;;;;5053709;28;20381;-55
2024/03/27 02:43:07;;;;;;;3.83;2.28;;;11.60;99.90;;;;;;5053171;28;20029;-51
2024/03/27 02:45:33;;;;;;;7.10;3.20;;;11.50;99.90;;;;;;5052614;28;20036;-56
2024/03/27 02:47:58;;;;;;;3.33;2.75;;;11.50;99.90;;;;;;5052723;28;20498;-48
2024/03/27 02:50:25;;;;;;;7.93;2.55;;;11.40;99.90;;;;;;5052453;28;20034;-55
2024/03/27 02:52:51;;;;;;;3.50;2.17;;;11.40;99.90;;;;;;5053554;28;20021;-53
2024/03/27 02:55:17;;;;;;;9.02;3.38;;;11.30;99.90;;;;;;5041761;28;20490;-55
2024/03/27 02:57:42;;;;;;;7.65;2.60;;;11.30;99.90;;;;;;5033216;28;20028;-57
2024/03/27 03:00:10;;;;;;;6.90;2.38;;;11.20;99.90;;;;;;5033381;28;20029;-56
2024/03/27 03:02:36;;;;;;;;;;;11.20;99.90;;;;;;5033817;28;20032;-53
2024/03/27 03:05:02;;;;;;;7.25;2.75;;;11.20;99.90;;;;;;5049809;28;19916;-58
2024/03/27 03:07:28;;;;;;;4.45;2.63;;;11.10;99.90;;;;;;5048479;28;20049;-55
2024/03/27 03:09:54;;;;;;;6.88;2.83;;;11.20;99.90;;;;;;5032974;28;20041;-55
2024/03/27 03:12:20;;;;;;;5.15;2.33;;;11.10;99.90;;;;;;5033429;28;20100;-55
2024/03/27 03:14:45;;;;;;;5.72;2.67;;;11.20;99.90;;;;;;5045815;28;20549;-56
2024/03/27 03:17:11;;;;;;;5.93;3.10;;;11.10;99.90;;;;;;5032596;28;20528;-59
2024/03/27 03:19:37;;;;;;;10.40;3.05;;;11.10;99.90;;;;;;5044361;28;20603;-56
2024/03/27 03:22:04;;;;;;;5.47;2.63;;;11.10;99.90;;;;;;5052688;28;20115;-55
2024/03/27 03:24:30;;;;;;;4.50;3.40;;;11.00;99.90;;;;;;5052018;28;20036;-55
2024/03/27 03:26:55;;;;;;;6.68;2.58;;;11.00;99.90;;;;;;5052631;28;20444;-53
2024/03/27 03:29:21;;;;;;;5.82;2.50;;;11.10;99.90;;;;;;5052619;28;20025;-55
2024/03/27 03:31:46;;;;;;;8.77;2.80;;;11.10;99.90;;;;;;5052425;28;20029;-55
2024/03/27 03:34:12;;;;;;;6.22;2.72;;;11.10;99.90;;;;;;5051614;28;20040;-42
2024/03/27 03:36:39;;;;;;;8.30;3.00;;;11.10;99.90;;;;;;5052138;28;20463;-42
2024/03/27 03:39:05;;;;;;;5.50;2.42;;;11.10;99.90;;;;;;5052666;28;20481;-44
2024/03/27 03:41:30;;;;;;;5.85;2.33;;;11.10;99.90;;;;;;5052512;28;20017;-44
2024/03/27 03:43:56;;;;;;;6.30;2.83;;;11.10;99.90;;;;;;5052063;28;20027;-45
2024/03/27 03:46:22;;;;;;;7.03;2.90;;;11.10;99.90;;;;;;5051714;28;20104;-52
2024/03/27 03:48:47;;;;;;;3.65;2.25;;;11.10;99.90;;;;;;5051812;28;20158;-48
2024/03/27 03:51:13;;;;;;;7.07;2.83;;;11.00;99.90;;;;;;5052288;28;20025;-43
2024/03/27 03:53:38;;;;;;;2.38;2.17;;;11.00;99.90;;;;;;5051665;28;20027;-43
2024/03/27 03:56:05;;;;;;;11.60;2.47;;;11.00;99.90;;;;;;5051544;28;20043;-44
2024/03/27 03:58:31;;;;;;;11.40;2.90;;;11.00;99.90;;;;;;5039603;28;20473;-42
2024/03/27 04:00:56;;;;;;;5.07;2.38;;;10.90;99.90;;;;;;5052508;28;20095;-47
2024/03/27 04:03:22;;;;;;;7.57;2.58;;;10.90;99.90;;;;;;5051673;28;20104;-42
2024/03/27 04:05:48;;;;;;;6.32;2.63;;;10.90;99.90;;;;;;5051730;28;20029;-43
2024/03/27 04:08:13;;;;;;;4.85;2.70;;;11.00;99.90;;;;;;5052047;28;20027;-43
2024/03/27 04:10:40;;;;;;;3.13;1.83;;;11.00;99.90;;;;;;5052051;28;20021;-44
2024/03/27 04:13:06;;;;;;;5.13;2.28;;;11.00;99.90;;;;;;5052029;28;20550;-42
2024/03/27 04:15:31;;;;;;;5.30;2.28;;;11.00;99.90;;;;;;5051153;28;20103;-45
2024/03/27 04:17:57;;;;;;;5.05;2.03;;;11.00;99.90;;;;;;5051821;28;20519;-42
2024/03/27 04:20:23;;;;;;;2.28;1.80;;;11.10;99.90;;;;;;5050687;28;20091;-44
2024/03/27 04:22:48;;;;;;;3.25;1.60;;;11.10;99.90;;;;;;5052037;28;20441;-47
2024/03/27 04:25:14;;;;;;;2.80;1.70;;;11.20;99.90;;;;;;5051951;28;20040;-44
2024/03/27 04:27:40;;;;;;;10.25;2.42;;;11.20;99.90;;;;;;5051991;28;20028;-44
2024/03/27 04:30:07;;;;;;;4.28;1.92;;;11.20;99.90;;;;;;5050270;28;20449;-43
2024/03/27 04:32:33;;;;;;;5.38;2.60;;;11.30;99.90;;;;;;5051395;28;20025;-46
2024/03/27 04:34:59;;;;;;;8.63;3.00;;;11.30;99.90;;;;;;5050953;28;20031;-46
2024/03/27 04:37:25;;;;;;;2.70;1.98;;;11.30;99.90;;;;;;5051868;28;20405;-41
2024/03/27 04:39:53;;;;;;;2.92;2.17;;;11.20;99.90;;;;;;5051352;28;20026;-50
2024/03/27 04:42:19;;;;;;;2.85;2.15;;;11.30;99.90;;;;;;5051166;28;20501;-45
2024/03/27 04:44:44;;;;;;;2.38;1.85;;;11.30;99.90;;;;;;5051682;28;20027;-45
2024/03/27 04:47:10;;;;;;;7.22;2.22;;;11.20;99.90;;;;;;5051766;28;20029;-53
2024/03/27 04:49:37;;;;;;;4.75;2.33;;;11.30;99.90;;;;;;5053564;28;20062;-55
2024/03/27 04:52:02;;;;;;;8.90;2.22;;;11.20;99.90;;;;;;5055404;28;20025;-52
2024/03/27 04:54:29;;;;;;;3.90;1.65;;;11.20;99.90;;;;;;5055448;28;20088;-45
2024/03/27 04:56:55;;;;;;;2.10;1.83;;;11.20;99.90;;;;;;5055502;28;20025;-56
2024/03/27 04:59:22;;;;;;;3.30;1.73;;;11.30;99.90;;;;;;5055156;28;20083;-56
2024/03/27 05:01:48;;;;;;;1.73;1.50;;;11.30;99.90;;;;;;5053877;28;20025;-56
2024/03/27 05:04:14;;;;;;;1.75;1.58;;;11.30;99.90;;;;;;5054577;28;20025;-60
2024/03/27 05:06:41;;;;;;;6.00;1.90;;;11.30;99.90;;;;;;5054885;28;20469;-42
2024/03/27 05:09:10;;;;;;;2.53;1.60;;;11.20;99.90;;;;;;5054822;28;21491;-43
2024/03/27 05:11:36;;;;;;;3.47;1.65;;;11.20;99.90;;;;;;5053245;28;20115;-45
2024/03/27 05:14:02;;;;;;;2.05;1.55;;;11.30;99.90;;;;;;5055145;28;20021;-47
2024/03/27 05:16:28;;;;;;;1.65;1.48;;;11.30;99.90;;;;;;5054893;28;20094;-45
2024/03/27 05:18:53;;;;;;;1.80;1.30;;;11.30;99.90;;;;;;5053646;28;20021;-53
2024/03/27 05:21:21;;;;;;;4.25;1.60;;;11.20;99.90;;;;;;5054202;28;20056;-54
2024/03/27 05:23:47;;;;;;;7.13;1.75;;;11.10;99.90;;;;;;5055050;28;20044;-58
2024/03/27 05:26:12;;;;;;;3.95;1.60;;;11.00;99.90;;;;;;5054849;28;20032;-55
2024/03/27 05:28:38;;;;;;;8.55;2.42;;;11.00;99.90;;;;;;5054813;28;20021;-57
2024/03/27 05:31:04;;;;;;;5.93;1.70;;;10.90;99.90;;;;;;5053769;28;20051;-53
2024/03/27 05:33:30;;;;;;;3.15;2.03;;;10.80;99.90;;;;;;5054664;28;20366;-54
2024/03/27 05:35:56;;;;;;;5.75;2.00;;;10.80;99.90;;;;;;5053957;28;20105;-55
2024/03/27 05:38:22;;;;;;;6.68;1.73;;;10.70;99.90;;;;;;5054463;28;20021;-54
2024/03/27 05:40:48;;;;;;;2.08;1.83;;;10.70;99.90;;;;;;5053768;28;20032;-53
2024/03/27 05:43:13;;;;;;;2.97;1.67;;;10.60;99.90;;;;;;5054848;28;20470;-54
2024/03/27 05:45:39;;;;;;;7.45;2.97;;;10.60;99.90;;;;;;5052025;28;20021;-44
2024/03/27 05:48:05;;;;;;;2.85;2.65;;;10.60;99.90;;;;;;5054537;28;20025;-56
2024/03/27 05:50:30;;;;;;;4.68;2.72;;;10.60;99.90;;;;;;5053067;28;20029;-49
2024/03/27 05:52:56;;;;;;;6.95;3.33;;;10.60;99.90;;;;;;5054329;28;20457;-45
2024/03/27 05:55:21;;;;;;;9.88;4.03;;;10.50;99.90;;;;;;5054639;28;20029;-43
2024/03/27 05:57:47;;;;;;;5.70;3.50;;;10.40;99.90;;;;;;5053441;28;20029;-44
2024/03/27 06:00:14;;;;;;;6.07;3.15;;;10.40;99.90;;;;;;5054022;28;20405;-42
2024/03/27 06:02:41;;;;;;;11.20;4.55;;;10.40;99.90;;;;;;5045617;28;20413;-48
2024/03/27 06:05:07;;;;;;;9.10;3.65;;;10.40;99.90;;;;;;5052032;28;20420;-42
2024/03/27 06:07:32;;;;;;;11.00;3.90;;;10.30;99.90;;;;;;5053846;28;20029;-42
2024/03/27 06:09:58;;;;;;;6.47;3.58;;;10.30;99.90;;;;;;5054316;28;20507;-44
2024/03/27 06:12:23;;;;;;;5.88;3.05;;;10.30;99.90;;;;;;5054021;28;20043;-40
2024/03/27 06:14:49;;;;;;;11.75;3.28;;;10.40;99.90;;;;;;5053409;28;20062;-46
2024/03/27 06:17:15;;;;;;;7.45;2.88;;;10.30;99.90;;;;;;5053282;28;20505;-43
2024/03/27 06:19:40;;;;;;;7.55;3.58;;;10.30;99.90;;;;;;5053553;28;20539;-54
2024/03/27 06:22:06;;;;;;;4.60;3.08;;;10.30;99.90;;;;;;5053442;28;20519;-55
2024/03/27 06:24:32;;;;;;;7.45;3.20;;;10.40;99.90;;;;;;5051104;28;20107;-55
2024/03/27 06:26:57;;;;;;;5.90;2.75;;;10.40;99.90;;;;;;5053762;28;20033;-54
2024/03/27 06:29:23;;;;;;;4.50;2.70;;;10.30;99.90;;;;;;5053628;28;20040;-54
2024/03/27 06:31:49;;;;;;;5.05;3.20;;;10.30;99.90;;;;;;5051872;28;20466;-56
2024/03/27 06:34:15;;;;;;;4.68;2.63;;;10.30;99.90;;;;;;5053608;28;20075;-55
2024/03/27 06:36:41;;;;;;;8.27;2.95;;;10.30;99.90;;;;;;5053454;28;20500;-55
2024/03/27 06:39:12;;;;;;;5.88;3.00;;;10.30;99.90;;;;;;5053722;28;20112;-54
2024/03/27 06:41:40;;;;;;;14.15;3.60;;;10.30;99.90;;;;;;5053617;28;20474;-52
2024/03/27 06:44:05;;;;;;;13.70;4.50;;;10.20;99.90;;;;;;5052154;28;20029;-54
2024/03/27 06:46:36;;;;;;;11.65;4.38;;;10.30;99.90;;;;;;5053251;28;20086;-55
2024/03/27 06:49:17;;;;;;;11.30;3.80;;;10.30;99.90;;;;;;5052959;28;20031;-57
2024/03/27 06:51:47;;;;;;;6.55;4.35;;;10.30;99.90;;;;;;5053404;28;20371;-56
2024/03/27 06:54:12;;;;;;;12.95;4.55;;;10.30;99.90;;;;;;5053156;28;20052;-55
2024/03/27 06:56:38;;;;;;;9.05;4.97;;;10.30;99.90;;;;;;5053081;28;20064;-52
2024/03/27 06:59:04;;;;;;;8.23;4.57;;;10.30;99.90;;;;;;5053277;28;20017;-54
2024/03/27 07:01:30;;;;;;;15.10;6.00;;;10.30;99.90;;;;;;5049012;28;20065;-59
2024/03/27 07:03:55;;;;;;;11.00;5.85;;;10.30;99.90;;;;;;5052846;28;20104;-55
2024/03/27 07:06:21;;;;;;;8.82;5.63;;;10.30;99.90;;;;;;5050984;28;20033;-55
2024/03/27 07:08:47;;;;;;;10.48;5.88;;;10.30;99.90;;;;;;5052999;28;20269;-55
2024/03/27 07:11:12;;;;;;;10.07;6.28;;;10.30;99.90;;;;;;5052265;28;20029;-55
2024/03/27 07:13:39;;;;;;;9.52;5.65;;;10.30;99.90;;;;;;5052823;28;20549;-56
2024/03/27 07:16:05;;;;;;;11.00;6.13;;;10.30;99.90;;;;;;5051650;28;20158;-50
2024/03/27 07:18:30;;;;;;;7.97;5.05;;;10.20;99.90;;;;;;5052355;28;20119;-55
2024/03/27 07:20:57;;;;;;;9.88;5.22;;;10.20;99.90;;;;;;5051793;28;20436;-55
2024/03/27 07:23:22;;;;;;;9.43;5.03;;;10.20;99.90;;;;;;5050513;28;20040;-53
2024/03/27 07:25:48;;;;;;;10.82;5.38;;;10.20;99.90;;;;;;5052563;28;20029;-54
2024/03/27 07:28:14;;;;;;;7.75;3.28;;;10.30;99.90;;;;;;5052669;28;20535;-56
2024/03/27 07:30:40;;;;;;;5.63;3.45;;;10.20;99.90;;;;;;5051206;28;20052;-55
2024/03/27 07:33:06;;;;;;;7.85;3.10;;;10.20;99.90;;;;;;5051532;28;20436;-55
2024/03/27 07:35:32;;;;;;;9.48;3.50;;;10.20;99.90;;;;;;5050829;28;20048;-59
2024/03/27 07:37:58;;;;;;;7.93;3.33;;;10.10;99.90;;;;;;5051459;28;20473;-53
2024/03/27 07:40:26;;;;;;;5.30;2.28;;;10.20;99.90;;;;;;5052133;28;20033;-51
2024/03/27 07:42:52;;;;;;;;;;;10.20;99.90;;;;;;5052664;28;20456;-54
2024/03/27 07:45:17;;;;;;;5.47;3.28;;;10.20;99.90;;;;;;5051178;28;20012;-55
2024/03/27 07:47:43;;;;;;;7.25;3.47;;;10.20;99.90;;;;;;5052277;28;20469;-54
2024/03/27 07:50:09;;;;;;;8.43;3.47;;;10.30;99.90;;;;;;5050836;28;20456;-53
2024/03/27 07:52:35;;;;;;;6.03;2.95;;;10.30;99.90;;;;;;5052182;28;20025;-55
2024/03/27 07:55:01;;;;;;;4.70;2.88;;;10.40;99.90;;;;;;5052143;28;20094;-55
2024/03/27 07:57:27;;;;;;;8.75;3.25;;;10.40;99.90;;;;;;5051934;28;20024;-57
2024/03/27 07:59:53;;;;;;;3.88;2.88;;;10.40;99.90;;;;;;5050692;28;20159;-55
2024/03/27 08:02:19;;;;;;;7.43;2.92;;;10.40;99.90;;;;;;5052377;28;20382;-54
2024/03/27 08:04:45;;;;;;;19.63;3.63;;;10.40;99.90;;;;;;5052035;28;20082;-54
2024/03/27 08:07:10;;;;;;;13.15;2.92;;;10.40;99.90;;;;;;5051950;28;20021;-55
2024/03/27 08:09:36;;;;;;;8.02;3.08;;;10.40;99.90;;;;;;5052187;28;20483;-60
2024/03/27 08:12:02;;;;;;;5.07;2.70;;;10.40;99.90;;;;;;5051885;28;20408;-55
2024/03/27 08:14:27;;;;;;;5.47;2.90;;;10.40;99.90;;;;;;5051778;28;20056;-51
2024/03/27 08:16:53;;;;;;;3.83;2.47;;;10.40;99.90;;;;;;5050702;28;20502;-55
2024/03/27 08:19:19;;;;;;;6.88;2.88;;;10.60;99.90;;;;;;5052058;28;20498;-55
2024/03/27 08:21:44;;;;;;;12.57;3.03;;;10.60;99.90;;;;;;5049608;28;20025;-55
2024/03/27 08:24:10;;;;;;;6.50;3.55;;;10.70;99.90;;;;;;5054586;28;20025;-57
2024/03/27 08:26:36;;;;;;;5.13;2.95;;;10.80;99.90;;;;;;5054770;28;20546;-44
2024/03/27 08:29:03;;;;;;;5.18;3.20;;;10.90;99.90;;;;;;5055215;28;20100;-46
2024/03/27 08:31:29;;;;;;;8.45;4.00;;;11.10;99.90;;;;;;5054555;28;20096;-45
2024/03/27 08:33:57;;;;;;;10.85;3.42;;;11.20;99.90;;;;;;5049084;28;20101;-45
2024/03/27 08:36:23;;;;;;;4.47;2.83;;;11.30;99.90;;;;;;5045285;28;20033;-46
2024/03/27 08:38:49;;;;;;;5.63;3.47;;;11.40;99.90;;;;;;5055814;28;20029;-42
2024/03/27 08:41:14;;;;;;;6.00;3.20;;;11.50;99.90;;;;;;5048391;28;20466;-44
2024/03/27 08:43:40;;;;;;;6.25;3.60;;;11.60;99.90;;;;;;5035811;28;20030;-46
2024/03/27 08:46:05;;;;;;;6.32;2.92;;;11.80;99.90;;;;;;5035848;28;20057;-43
2024/03/27 08:48:31;;;;;;;4.07;3.05;;;11.80;99.90;;;;;;5043539;28;20385;-43
2024/03/27 08:50:56;;;;;;;5.45;3.08;;;11.80;99.90;;;;;;5053896;28;20029;-42
2024/03/27 08:53:22;;;;;;;5.57;2.67;;;11.90;99.90;;;;;;5054125;28;20036;-45
2024/03/27 08:55:48;;;;;;;3.75;2.88;;;12.00;99.90;;;;;;5055459;28;20382;-44
2024/03/27 08:58:13;;;;;;;5.07;2.80;;;11.90;99.90;;;;;;5054103;28;20071;-45
2024/03/27 09:00:40;;;;;;;3.33;2.05;;;11.80;99.90;;;;;;5052811;28;20029;-49
2024/03/27 09:03:06;;;;;;;3.88;2.38;;;11.80;99.90;;;;;;5055369;28;20382;-44
2024/03/27 09:05:32;;;;;;;3.60;2.10;;;11.70;99.90;;;;;;5052938;28;20034;-43
2024/03/27 09:07:58;;;;;;;3.55;2.45;;;11.80;99.90;;;;;;5055679;28;20032;-44
2024/03/27 09:10:25;;;;;;;5.80;3.15;;;11.70;99.90;;;;;;5055366;28;20074;-43
2024/03/27 09:12:50;;;;;;;3.80;3.03;;;11.60;99.90;;;;;;5055226;28;20424;-46
2024/03/27 09:15:16;;;;;;;12.00;3.50;;;11.50;99.90;;;;;;5055044;28;20268;-46
2024/03/27 09:17:42;;;;;;;6.75;3.95;;;11.50;99.90;;;;;;5053675;28;20057;-47
2024/03/27 09:20:09;;;;;;;3.53;3.20;;;11.30;99.90;;;;;;5055009;28;20389;-44
2024/03/27 09:22:35;;;;;;;5.65;3.17;;;11.30;99.90;;;;;;5054881;28;20074;-48
2024/03/27 09:25:02;;;;;;;10.32;3.80;;;11.20;99.90;;;;;;5054721;28;20386;-44
2024/03/27 09:27:27;;;;;;;6.90;4.30;;;11.20;99.90;;;;;;5055104;28;20377;-47
2024/03/27 09:29:53;;;;;;;9.50;4.45;;;11.00;99.90;;;;;;5054794;28;20025;-43
2024/03/27 09:32:22;;;;;;;6.45;3.70;;;10.90;99.90;;;;;;5054889;28;20396;-47
2024/03/27 09:34:48;;;;;;;9.02;4.18;;;10.90;99.90;;;;;;5054472;28;20029;-46
2024/03/27 09:37:15;;;;;;;11.70;4.53;;;10.80;99.90;;;;;;5054832;28;20029;-55
2024/03/27 09:39:41;;;;;;;6.00;4.60;;;10.80;99.90;;;;;;5054485;28;20497;-56
2024/03/27 09:42:07;;;;;;;5.68;4.10;;;10.80;99.90;;;;;;5054340;28;20044;-55
2024/03/27 09:44:33;;;;;;;9.65;4.00;;;10.80;99.90;;;;;;5054461;28;20036;-55
2024/03/27 09:47:00;;;;;;;5.88;4.30;;;10.80;99.90;;;;;;5054359;28;20497;-54
2024/03/27 09:49:29;;;;;;;6.18;3.38;;;10.70;99.90;;;;;;5051723;28;20104;-54
2024/03/27 09:51:58;;;;;;;8.73;4.20;;;10.70;99.90;;;;;;5054321;28;20523;-56
2024/03/27 09:54:28;;;;;;;7.07;3.60;;;10.60;99.90;;;;;;5053101;28;20358;-47
2024/03/27 09:56:57;;;;;;;6.28;3.22;;;10.60;99.90;;;;;;5054376;28;20027;-44
2024/03/27 09:59:23;;;;;;;5.00;2.90;;;10.70;99.90;;;;;;5054105;28;20100;-41
2024/03/27 10:02:06;;;;;;;5.20;3.17;;;10.90;99.90;;;;;;5052988;28;20578;-45
2024/03/27 10:04:31;;;;;;;11.45;3.28;;;11.00;99.90;;;;;;5054222;28;20025;-40
2024/03/27 10:06:58;;;;;;;4.55;2.53;;;11.20;99.90;;;;;;5067552;28;20031;-42
2024/03/27 10:09:23;;;;;;;3.40;2.83;;;11.40;99.90;;;;;;5066276;28;20587;-44
2024/03/27 10:11:49;;;;;;;3.65;2.83;;;11.70;99.90;;;;;;5053820;28;20025;-45
2024/03/27 10:14:15;;;;;;;7.65;2.67;;;11.90;99.90;;;;;;5072071;28;20032;-41
2024/03/27 10:16:54;;;;;;;5.18;2.85;;;12.20;99.90;;;;;;5056852;28;20095;-43
2024/03/27 10:19:20;;;;;;;3.10;2.17;;;12.30;99.90;;;;;;5059938;28;20508;-44
2024/03/27 10:21:45;;;;;;;3.65;1.98;;;12.50;99.90;;;;;;5074198;28;20024;-42
2024/03/27 10:24:11;;;;;;;2.75;2.10;;;12.70;99.90;;;;;;5073844;28;20029;-43
2024/03/27 10:26:36;;;;;;;3.95;2.10;;;12.80;99.90;;;;;;5073723;28;20512;-46
2024/03/27 10:29:02;;;;;;;2.42;1.58;;;12.90;99.90;;;;;;5071663;28;20016;-45
2024/03/27 10:31:28;;;;;;;2.33;1.92;;;12.90;99.90;;;;;;5054696;28;20518;-45
2024/03/27 10:33:53;;;;;;;1.58;1.48;;;13.00;99.90;;;;;;5053713;28;20021;-46
2024/03/27 10:36:26;;;;;;;2.40;1.98;;;13.10;99.90;;;;;;5053619;28;20017;-45
2024/03/27 10:38:56;;;;;;;1.33;1.20;;;13.10;99.90;;;;;;5052456;28;20024;-46
2024/03/27 10:41:25;;;;;;;2.47;1.75;;;13.10;99.90;;;;;;5052509;28;20358;-45
2024/03/27 10:43:55;;;;;;;5.50;2.15;;;13.20;99.90;;;;;;5052121;28;20386;-47
2024/03/27 10:46:21;;;;;;;1.85;1.10;;;13.40;99.90;;;;;;5051703;28;20028;-56
2024/03/27 10:48:48;;;;;;;4.63;1.20;;;13.50;99.90;;;;;;5053211;28;20079;-55
2024/03/27 10:51:15;;;;;;;4.32;1.00;;;13.60;99.90;;;;;;5045083;28;20557;-55
2024/03/27 10:53:41;;;;;;;4.72;1.55;;;13.60;99.90;;;;;;5033444;28;20390;-55
2024/03/27 10:56:09;;;;;;;3.92;1.45;;;13.60;99.90;;;;;;5051547;28;20024;-55
2024/03/27 10:58:36;;;;;;;4.45;0.98;;;13.60;99.90;;;;;;5053143;28;20493;-56
2024/03/27 11:01:02;;;;;;;12.98;1.30;;;13.70;99.90;;;;;;5051777;28;20024;-55
2024/03/27 11:03:29;;;;;;;1.60;1.40;;;13.80;99.90;;;;;;5052859;28;20036;-58
2024/03/27 11:05:59;;;;;;;1.05;0.95;;;13.80;99.90;;;;;;5052976;28;20159;-55
2024/03/27 11:08:28;;;;;;;8.13;2.58;;;13.80;99.90;;;;;;5052867;28;20058;-54
2024/03/27 11:11:14;;;;;;;1.85;0.93;;;13.80;99.90;;;;;;5053213;28;20021;-55
2024/03/27 11:13:47;;;;;;;0.98;0.80;;;13.80;99.90;;;;;;5053201;28;20527;-56
2024/03/27 11:16:13;;;;;;;2.85;0.85;;;13.60;99.90;;;;;;5052831;28;20480;-56
2024/03/27 11:18:44;;;;;;;4.03;1.20;;;13.60;99.90;;;;;;5052731;28;20108;-56
2024/03/27 11:21:11;;;;;;;2.65;1.30;;;13.50;99.90;;;;;;5052655;28;20104;-57
2024/03/27 11:23:38;;;;;;;1.73;1.30;;;13.50;99.90;;;;;;5052554;28;20082;-55
2024/03/27 11:26:04;;;;;;;1.67;1.17;;;13.50;99.90;;;;;;5052440;28;20021;-56
2024/03/27 11:28:31;;;;;;;1.88;1.42;;;13.50;99.90;;;;;;5051542;28;20158;-57
2024/03/27 11:30:57;;;;;;;2.63;1.77;;;13.60;99.90;;;;;;5051227;28;20035;-54
2024/03/27 11:33:24;;;;;;;1.17;1.02;;;13.70;99.90;;;;;;5052425;28;20021;-55
2024/03/27 11:35:50;;;;;;;2.00;1.40;;;13.70;99.90;;;;;;5052728;28;20033;-55
2024/03/27 11:38:22;;;;;;;3.92;0.90;;;13.70;99.90;;;;;;5052206;28;20397;-54
2024/03/27 11:40:51;;;;;;;1.55;0.90;;;13.70;99.90;;;;;;5052165;28;20033;-55
2024/03/27 11:43:18;;;;;;;5.22;1.27;;;13.70;99.90;;;;;;5052344;28;20035;-52
2024/03/27 11:45:45;;;;;;;1.00;1.00;;;13.60;99.90;;;;;;5052244;28;20059;-55
2024/03/27 11:48:10;;;;;;;5.60;1.58;;;13.50;99.90;;;;;;5052272;28;20025;-56
2024/03/27 11:50:36;;;;;;;1.63;1.40;;;13.50;99.90;;;;;;5043266;28;20100;-56
2024/03/27 11:53:03;;;;;;;5.78;1.30;;;13.50;99.90;;;;;;5032366;28;20474;-55
2024/03/27 11:55:29;;;;;;;4.45;1.33;;;13.60;99.90;;;;;;5046220;28;20037;-55
2024/03/27 11:57:55;;;;;;;1.35;1.20;;;13.70;99.90;;;;;;5051933;28;20446;-56
2024/03/27 12:00:21;;;;;;;2.70;1.13;;;13.70;99.90;;;;;;5052109;28;20100;-55
2024/03/27 12:02:46;;;;;;;2.75;1.30;;;13.80;99.90;;;;;;5052093;28;20674;-56
2024/03/27 12:05:12;;;;;;;1.90;1.48;;;14.00;99.90;;;;;;5052017;28;20412;-57
2024/03/27 12:07:41;;;;;;;3.90;1.30;;;14.10;99.90;;;;;;5052112;28;20024;-56
2024/03/27 12:10:10;;;;;;;3.65;1.83;;;14.10;99.90;;;;;;5050684;28;20021;-54
2024/03/27 12:12:36;;;;;;;2.17;1.77;;;14.20;99.90;;;;;;5051909;28;20477;-55
2024/03/27 12:15:03;;;;;;;7.70;1.75;;;14.40;99.90;;;;;;5051738;28;20371;-55
2024/03/27 12:17:36;;;;;;;21.77;4.03;;;14.50;99.90;;;;;;5051913;28;20505;-54
2024/03/27 12:20:07;;;;;;;11.52;2.63;;;14.70;99.90;;;;;;5052281;28;20493;-55
2024/03/27 12:22:34;;;;;;;3.22;1.95;;;14.70;99.90;;;;;;5052243;28;20155;-55
2024/03/27 12:25:00;;;;;;;2.15;1.90;;;14.70;99.90;;;;;;5051795;28;20048;-58
2024/03/27 12:27:33;;;;;;;3.92;1.90;;;14.80;99.90;;;;;;5052187;28;20493;-55
2024/03/27 12:29:59;;;;;;;36.60;3.05;;;14.90;99.90;;;;;;5050261;28;20025;-54
2024/03/27 12:32:27;;;;;;;6.78;2.15;;;15.10;99.90;;;;;;5052025;28;20362;-55
2024/03/27 12:34:53;;;;;;;1.88;1.63;;;15.40;99.90;;;;;;5052093;28;20052;-53
2024/03/27 12:37:19;;;;;;;11.48;2.97;;;15.40;99.90;;;;;;5051775;28;20379;-54
2024/03/27 12:39:45;;;;;;;5.70;1.38;;;15.50;99.90;;;;;;5052019;28;20028;-55
2024/03/27 12:42:11;;;;;;;25.63;3.97;;;15.50;99.90;;;;;;5051725;28;20105;-60